createdAt,value
2023-05-13T00:00:09.956Z,10.17
2023-05-13T00:01:09.951Z,10.23
2023-05-13T00:02:09.944Z,10.23
2023-05-13T00:03:10.078Z,10.26
2023-05-13T00:04:09.958Z,10.25
2023-05-13T00:05:09.926Z,10.23
2023-05-13T00:06:09.975Z,10.26
2023-05-13T00:07:09.935Z,10.31
2023-05-13T00:08:09.882Z,10.48
2023-05-13T00:09:09.878Z,10.41
2023-05-13T00:10:09.865Z,10.38
2023-05-13T00:11:09.928Z,10.38
2023-05-13T00:12:09.872Z,10.37
2023-05-13T00:13:09.884Z,10.46
2023-05-13T00:14:09.839Z,10.46
2023-05-13T00:15:09.858Z,10.37
2023-05-13T00:16:09.863Z,10.46
2023-05-13T00:17:09.839Z,10.51
2023-05-13T00:18:09.810Z,10.42
2023-05-13T00:19:09.875Z,10.56
2023-05-13T00:20:09.836Z,10.42
2023-05-13T00:21:09.830Z,10.51
2023-05-13T00:22:09.781Z,10.44
2023-05-13T00:23:09.827Z,10.51
2023-05-13T00:24:09.765Z,10.49
2023-05-13T00:25:09.797Z,10.53
2023-05-13T00:26:09.791Z,10.44
2023-05-13T00:27:09.779Z,10.51
2023-05-13T00:28:09.736Z,10.48
2023-05-13T00:29:09.783Z,10.44
2023-05-13T00:30:09.744Z,10.44
2023-05-13T00:31:09.887Z,10.41
2023-05-13T00:32:09.751Z,10.33
2023-05-13T00:33:09.734Z,10.38
2023-05-13T00:34:09.741Z,10.31
2023-05-13T00:35:09.722Z,10.28
2023-05-13T00:36:09.687Z,10.35
2023-05-13T00:37:09.717Z,10.38
2023-05-13T00:38:09.677Z,10.33
2023-05-13T00:39:09.871Z,10.30
2023-05-13T00:40:09.712Z,10.26
2023-05-13T00:41:09.708Z,10.31
2023-05-13T00:42:09.664Z,10.30
2023-05-13T00:43:09.735Z,10.26
2023-05-13T00:44:09.672Z,10.33
2023-05-13T00:45:09.710Z,10.28
2023-05-13T00:46:09.673Z,10.26
2023-05-13T00:47:09.670Z,10.31
2023-05-13T00:48:09.690Z,10.35
2023-05-13T00:49:09.669Z,10.26
2023-05-13T00:50:09.666Z,10.26
2023-05-13T00:51:09.670Z,10.28
2023-05-13T00:52:09.581Z,10.31
2023-05-13T00:53:09.605Z,10.31
2023-05-13T00:54:09.580Z,10.30
2023-05-13T00:55:09.605Z,10.37
2023-05-13T00:56:09.578Z,10.42
2023-05-13T00:57:09.676Z,10.42
2023-05-13T00:58:09.555Z,10.40
2023-05-13T00:59:09.555Z,10.48
2023-05-13T01:00:09.536Z,10.37
2023-05-13T01:01:16.634Z,10.41
2023-05-13T01:02:09.553Z,10.42
2023-05-13T01:03:09.719Z,10.40
2023-05-13T01:04:09.520Z,10.37
2023-05-13T01:05:09.526Z,10.41
2023-05-13T01:06:09.512Z,10.38
2023-05-13T01:07:09.533Z,10.34
2023-05-13T01:08:09.490Z,10.28
2023-05-13T01:09:09.506Z,10.31
2023-05-13T01:10:09.497Z,10.26
2023-05-13T01:11:09.498Z,10.22
2023-05-13T01:12:09.460Z,10.19
2023-05-13T01:13:09.501Z,10.22
2023-05-13T01:14:09.477Z,10.23
2023-05-13T01:15:09.455Z,10.25
2023-05-13T01:16:09.470Z,10.20
2023-05-13T01:17:09.438Z,10.09
2023-05-13T01:18:09.519Z,10.10
2023-05-13T01:19:09.454Z,10.10
2023-05-13T01:20:09.434Z,10.01
2023-05-13T01:21:09.410Z,9.97
2023-05-13T01:22:09.389Z,9.95
2023-05-13T01:23:09.399Z,9.94
2023-05-13T01:24:09.374Z,9.95
2023-05-13T01:25:09.376Z,9.84
2023-05-13T01:26:09.384Z,9.84
2023-05-13T01:27:09.368Z,9.84
2023-05-13T01:28:09.371Z,9.92
2023-05-13T01:29:09.359Z,9.89
2023-05-13T01:30:09.347Z,9.83
2023-05-13T01:31:09.443Z,9.84
2023-05-13T01:32:09.309Z,9.79
2023-05-13T01:33:09.385Z,9.80
2023-05-13T01:34:09.297Z,9.74
2023-05-13T01:35:09.321Z,9.87
2023-05-13T01:36:09.286Z,9.87
2023-05-13T01:37:09.305Z,9.84
2023-05-13T01:38:09.273Z,9.80
2023-05-13T01:39:09.296Z,9.69
2023-05-13T01:40:17.510Z,9.74
2023-05-13T01:41:10.256Z,9.65
2023-05-13T01:42:09.279Z,9.62
2023-05-13T01:43:09.273Z,9.50
2023-05-13T01:44:09.260Z,9.46
2023-05-13T01:45:09.265Z,9.44
2023-05-13T01:46:09.304Z,9.40
2023-05-13T01:47:09.232Z,9.37
2023-05-13T01:48:09.246Z,9.39
2023-05-13T01:49:09.223Z,9.34
2023-05-13T01:50:09.213Z,9.29
2023-05-13T01:51:09.211Z,9.25
2023-05-13T01:52:09.186Z,9.31
2023-05-13T01:53:09.216Z,9.29
2023-05-13T01:54:09.154Z,9.19
2023-05-13T01:55:09.180Z,9.08
2023-05-13T01:56:09.214Z,9.11
2023-05-13T01:57:09.154Z,9.14
2023-05-13T01:58:09.147Z,9.10
2023-05-13T01:59:09.135Z,9.10
2023-05-13T02:00:09.110Z,9.08
2023-05-13T02:01:09.157Z,8.97
2023-05-13T02:02:09.176Z,8.97
2023-05-13T02:03:09.191Z,8.92
2023-05-13T02:04:09.097Z,8.99
2023-05-13T02:05:09.090Z,9.03
2023-05-13T02:06:09.088Z,9.00
2023-05-13T02:07:09.117Z,9.08
2023-05-13T02:08:09.080Z,8.95
2023-05-13T02:09:09.074Z,8.94
2023-05-13T02:10:09.045Z,8.85
2023-05-13T02:11:09.055Z,8.84
2023-05-13T02:12:09.041Z,8.82
2023-05-13T02:13:09.068Z,8.85
2023-05-13T02:14:09.019Z,8.76
2023-05-13T02:15:09.036Z,8.74
2023-05-13T02:16:09.060Z,8.71
2023-05-13T02:17:09.033Z,8.79
2023-05-13T02:18:09.075Z,8.74
2023-05-13T02:19:09.139Z,8.78
2023-05-13T02:20:08.998Z,8.70
2023-05-13T02:21:08.994Z,8.78
2023-05-13T02:22:08.992Z,8.69
2023-05-13T02:23:08.983Z,8.63
2023-05-13T02:24:08.953Z,8.71
2023-05-13T02:25:08.990Z,8.64
2023-05-13T02:26:08.958Z,8.67
2023-05-13T02:27:08.994Z,8.60
2023-05-13T02:28:08.946Z,8.69
2023-05-13T02:29:08.988Z,8.56
2023-05-13T02:30:08.978Z,8.70
2023-05-13T02:31:08.946Z,8.76
2023-05-13T02:32:08.979Z,8.74
2023-05-13T02:33:08.959Z,8.70
2023-05-13T02:34:08.923Z,8.66
2023-05-13T02:35:08.963Z,8.70
2023-05-13T02:36:08.881Z,8.63
2023-05-13T02:37:08.912Z,8.69
2023-05-13T02:38:08.909Z,8.66
2023-05-13T02:39:08.880Z,8.70
2023-05-13T02:40:08.882Z,8.76
2023-05-13T02:41:08.892Z,8.76
2023-05-13T02:42:08.851Z,8.81
2023-05-13T02:43:08.854Z,8.74
2023-05-13T02:44:08.858Z,8.71
2023-05-13T02:45:08.870Z,8.78
2023-05-13T02:46:08.890Z,8.88
2023-05-13T02:47:08.837Z,8.81
2023-05-13T02:48:08.906Z,8.82
2023-05-13T02:49:08.829Z,8.71
2023-05-13T02:50:08.796Z,8.88
2023-05-13T02:51:08.812Z,8.85
2023-05-13T02:52:08.810Z,8.97
2023-05-13T02:53:08.841Z,8.94
2023-05-13T02:54:08.801Z,8.92
2023-05-13T02:55:08.809Z,8.88
2023-05-13T02:56:08.800Z,8.94
2023-05-13T02:57:08.783Z,8.91
2023-05-13T02:58:08.771Z,8.91
2023-05-13T02:59:08.758Z,8.91
2023-05-13T03:00:08.756Z,8.78
2023-05-13T03:01:08.783Z,8.84
2023-05-13T03:02:08.760Z,8.85
2023-05-13T03:03:08.775Z,8.84
2023-05-13T03:04:08.755Z,8.94
2023-05-13T03:05:08.720Z,8.92
2023-05-13T03:06:08.701Z,8.85
2023-05-13T03:07:08.724Z,8.84
2023-05-13T03:08:08.692Z,8.87
2023-05-13T03:09:08.708Z,8.95
2023-05-13T03:10:08.700Z,8.92
2023-05-13T03:11:08.696Z,8.97
2023-05-13T03:12:08.666Z,8.97
2023-05-13T03:13:08.704Z,8.95
2023-05-13T03:14:08.667Z,8.91
2023-05-13T03:15:08.667Z,8.92
2023-05-13T03:16:08.672Z,8.94
2023-05-13T03:17:08.654Z,8.95
2023-05-13T03:18:08.635Z,8.85
2023-05-13T03:19:08.788Z,8.89
2023-05-13T03:20:08.637Z,8.89
2023-05-13T03:21:08.630Z,8.95
2023-05-13T03:22:08.642Z,8.89
2023-05-13T03:23:08.632Z,8.70
2023-05-13T03:24:08.588Z,8.79
2023-05-13T03:25:08.621Z,8.81
2023-05-13T03:26:08.604Z,8.76
2023-05-13T03:27:08.596Z,8.71
2023-05-13T03:28:08.577Z,8.87
2023-05-13T03:29:08.604Z,8.84
2023-05-13T03:30:08.566Z,8.91
2023-05-13T03:31:08.603Z,8.74
2023-05-13T03:32:08.572Z,8.87
2023-05-13T03:33:08.556Z,8.87
2023-05-13T03:34:08.550Z,8.84
2023-05-13T03:35:08.544Z,8.88
2023-05-13T03:36:08.533Z,8.91
2023-05-13T03:37:08.552Z,8.84
2023-05-13T03:38:08.540Z,8.88
2023-05-13T03:39:08.561Z,8.87
2023-05-13T03:40:08.537Z,8.89
2023-05-13T03:41:08.535Z,8.94
2023-05-13T03:42:08.495Z,8.85
2023-05-13T03:43:08.525Z,8.89
2023-05-13T03:44:08.493Z,8.97
2023-05-13T03:45:08.502Z,8.88
2023-05-13T03:46:08.460Z,8.99
2023-05-13T03:47:08.528Z,8.99
2023-05-13T03:48:08.586Z,8.88
2023-05-13T03:49:08.471Z,8.99
2023-05-13T03:50:08.473Z,9.03
2023-05-13T03:51:08.451Z,9.03
2023-05-13T03:52:08.425Z,8.89
2023-05-13T03:53:08.461Z,8.94
2023-05-13T03:54:08.437Z,8.92
2023-05-13T03:55:08.434Z,8.79
2023-05-13T03:56:08.412Z,8.79
2023-05-13T03:57:08.442Z,8.63
2023-05-13T03:58:08.403Z,8.70
2023-05-13T03:59:08.409Z,8.67
2023-05-13T04:00:08.408Z,8.73
2023-05-13T04:01:08.400Z,8.79
2023-05-13T04:02:08.438Z,8.74
2023-05-13T04:03:08.502Z,8.69
2023-05-13T04:04:08.387Z,8.82
2023-05-13T04:05:08.426Z,8.73
2023-05-13T04:06:08.370Z,8.82
2023-05-13T04:07:08.373Z,8.88
2023-05-13T04:08:08.366Z,8.71
2023-05-13T04:09:08.366Z,8.67
2023-05-13T04:10:08.337Z,8.76
2023-05-13T04:11:08.347Z,8.70
2023-05-13T04:12:08.383Z,8.71
2023-05-13T04:13:08.334Z,8.55
2023-05-13T04:14:08.322Z,8.70
2023-05-13T04:15:08.341Z,8.69
2023-05-13T04:16:08.304Z,8.74
2023-05-13T04:17:08.354Z,8.74
2023-05-13T04:18:08.396Z,8.91
2023-05-13T04:19:08.523Z,8.97
2023-05-13T04:20:08.299Z,9.00
2023-05-13T04:21:08.305Z,9.00
2023-05-13T04:22:08.275Z,9.14
2023-05-13T04:23:08.284Z,9.11
2023-05-13T04:24:08.283Z,9.10
2023-05-13T04:25:08.284Z,8.91
2023-05-13T04:26:08.238Z,8.88
2023-05-13T04:27:08.253Z,8.95
2023-05-13T04:28:08.229Z,8.94
2023-05-13T04:29:08.247Z,9.02
2023-05-13T04:30:08.246Z,9.03
2023-05-13T04:31:08.264Z,9.16
2023-05-13T04:32:08.383Z,9.21
2023-05-13T04:33:08.248Z,9.23
2023-05-13T04:34:08.197Z,9.23
2023-05-13T04:35:08.223Z,9.25
2023-05-13T04:36:08.209Z,9.03
2023-05-13T04:37:08.196Z,9.00
2023-05-13T04:38:08.176Z,8.95
2023-05-13T04:39:08.200Z,9.02
2023-05-13T04:40:08.154Z,9.13
2023-05-13T04:41:08.224Z,9.19
2023-05-13T04:42:08.187Z,9.11
2023-05-13T04:43:08.193Z,9.08
2023-05-13T04:44:08.137Z,9.06
2023-05-13T04:45:08.151Z,9.18
2023-05-13T04:46:08.178Z,9.08
2023-05-13T04:47:08.139Z,8.99
2023-05-13T04:48:08.194Z,8.99
2023-05-13T04:49:08.174Z,8.94
2023-05-13T04:50:08.143Z,8.85
2023-05-13T04:51:08.128Z,8.81
2023-05-13T04:52:08.111Z,8.99
2023-05-13T04:53:08.110Z,8.99
2023-05-13T04:54:08.146Z,8.85
2023-05-13T04:55:08.117Z,8.91
2023-05-13T04:56:08.113Z,8.99
2023-05-13T04:57:08.095Z,9.08
2023-05-13T04:58:08.077Z,9.02
2023-05-13T04:59:08.070Z,8.92
2023-05-13T05:00:08.063Z,8.89
2023-05-13T05:01:08.197Z,8.94
2023-05-13T05:02:08.107Z,8.88
2023-05-13T05:03:08.084Z,8.87
2023-05-13T05:04:08.130Z,9.02
2023-05-13T05:05:08.043Z,9.08
2023-05-13T05:06:08.012Z,9.10
2023-05-13T05:07:08.054Z,9.08
2023-05-13T05:08:08.005Z,8.97
2023-05-13T05:09:08.032Z,8.99
2023-05-13T05:10:08.009Z,8.95
2023-05-13T05:11:08.017Z,8.99
2023-05-13T05:12:08.004Z,8.97
2023-05-13T05:13:07.992Z,8.91
2023-05-13T05:14:07.975Z,8.94
2023-05-13T05:15:07.996Z,8.89
2023-05-13T05:16:07.980Z,8.97
2023-05-13T05:17:08.041Z,8.95
2023-05-13T05:18:08.132Z,9.03
2023-05-13T05:19:08.019Z,9.03
2023-05-13T05:20:07.954Z,8.95
2023-05-13T05:21:08.005Z,9.02
2023-05-13T05:22:07.983Z,8.95
2023-05-13T05:23:07.940Z,9.04
2023-05-13T05:24:07.945Z,9.16
2023-05-13T05:25:07.936Z,9.13
2023-05-13T05:26:11.638Z,9.22
2023-05-13T05:27:07.929Z,9.22
2023-05-13T05:28:07.929Z,9.44
2023-05-13T05:29:07.919Z,9.58
2023-05-13T05:30:07.899Z,9.62
2023-05-13T05:31:07.936Z,9.51
2023-05-13T05:32:07.872Z,9.66
2023-05-13T05:33:07.997Z,9.69
2023-05-13T05:34:07.867Z,9.82
2023-05-13T05:35:07.898Z,10.02
2023-05-13T05:36:07.847Z,9.91
2023-05-13T05:37:07.901Z,9.98
2023-05-13T05:38:07.865Z,9.99
2023-05-13T05:39:07.857Z,10.07
2023-05-13T05:40:07.862Z,10.35
2023-05-13T05:41:07.877Z,10.17
2023-05-13T05:42:07.844Z,10.31
2023-05-13T05:43:07.860Z,10.42
2023-05-13T05:44:07.815Z,10.41
2023-05-13T05:45:07.831Z,10.46
2023-05-13T05:46:07.883Z,10.61
2023-05-13T05:47:07.816Z,10.69
2023-05-13T05:48:07.815Z,10.72
2023-05-13T05:49:07.798Z,10.86
2023-05-13T05:50:07.807Z,11.12
2023-05-13T05:51:07.796Z,11.15
2023-05-13T05:52:07.781Z,10.99
2023-05-13T05:53:07.776Z,10.97
2023-05-13T05:54:07.756Z,11.40
2023-05-13T05:55:07.797Z,11.83
2023-05-13T05:56:07.739Z,12.43
2023-05-13T05:57:07.759Z,12.82
2023-05-13T05:58:08.674Z,12.35
2023-05-13T05:59:07.851Z,11.62
2023-05-13T06:00:07.733Z,11.30
2023-05-13T06:01:07.751Z,10.99
2023-05-13T06:02:07.881Z,10.78
2023-05-13T06:03:08.137Z,10.67
2023-05-13T06:04:07.852Z,10.56
2023-05-13T06:05:07.714Z,10.44
2023-05-13T06:06:07.688Z,10.19
2023-05-13T06:07:07.794Z,10.05
2023-05-13T06:08:07.690Z,10.12
2023-05-13T06:09:07.702Z,10.28
2023-05-13T06:10:08.419Z,10.46
2023-05-13T06:11:07.684Z,10.61
2023-05-13T06:12:07.644Z,10.82
2023-05-13T06:13:07.721Z,11.23
2023-05-13T06:14:07.629Z,11.43
2023-05-13T06:15:07.639Z,11.91
2023-05-13T06:16:07.819Z,12.36
2023-05-13T06:17:07.641Z,13.20
2023-05-13T06:18:07.635Z,13.00
2023-05-13T06:19:07.784Z,12.60
2023-05-13T06:20:07.583Z,12.31
2023-05-13T06:21:07.622Z,11.95
2023-05-13T06:22:07.577Z,12.20
2023-05-13T06:23:07.590Z,12.85
2023-05-13T06:24:07.569Z,13.41
2023-05-13T06:25:07.619Z,14.03
2023-05-13T06:26:07.548Z,14.78
2023-05-13T06:27:07.615Z,15.52
2023-05-13T06:28:07.538Z,15.40
2023-05-13T06:29:07.551Z,14.84
2023-05-13T06:30:07.524Z,15.15
2023-05-13T06:31:07.596Z,14.89
2023-05-13T06:32:07.492Z,14.79
2023-05-13T06:33:07.619Z,14.96
2023-05-13T06:34:07.517Z,15.07
2023-05-13T06:35:07.500Z,15.17
2023-05-13T06:36:07.465Z,14.85
2023-05-13T06:37:07.496Z,14.29
2023-05-13T06:38:07.483Z,13.60
2023-05-13T06:39:07.473Z,13.01
2023-05-13T06:40:07.450Z,12.85
2023-05-13T06:41:07.445Z,12.93
2023-05-13T06:42:07.450Z,13.12
2023-05-13T06:43:07.444Z,13.13
2023-05-13T06:44:07.507Z,13.05
2023-05-13T06:45:07.413Z,12.90
2023-05-13T06:46:07.398Z,12.90
2023-05-13T06:47:07.451Z,13.12
2023-05-13T06:48:07.436Z,13.12
2023-05-13T06:49:07.410Z,13.25
2023-05-13T06:50:07.369Z,13.39
2023-05-13T06:51:07.388Z,13.56
2023-05-13T06:52:07.362Z,13.44
2023-05-13T06:53:07.353Z,13.27
2023-05-13T06:54:07.346Z,13.13
2023-05-13T06:55:07.352Z,13.19
2023-05-13T06:56:07.359Z,13.12
2023-05-13T06:57:07.406Z,13.31
2023-05-13T06:58:07.308Z,13.50
2023-05-13T06:59:07.381Z,13.33
2023-05-13T07:00:07.303Z,13.39
2023-05-13T07:01:07.364Z,13.30
2023-05-13T07:02:07.367Z,13.38
2023-05-13T07:03:07.326Z,13.22
2023-05-13T07:04:07.306Z,13.08
2023-05-13T07:06:07.261Z,13.38
2023-05-13T07:07:07.338Z,13.49
2023-05-13T07:08:07.270Z,13.62
2023-05-13T07:09:08.548Z,13.67
2023-05-13T07:10:07.267Z,13.83
2023-05-13T07:11:07.222Z,13.92
2023-05-13T07:12:07.202Z,14.03
2023-05-13T07:13:07.213Z,14.00
2023-05-13T07:14:07.189Z,14.07
2023-05-13T07:15:07.179Z,14.55
2023-05-13T07:16:07.167Z,15.10
2023-05-13T07:17:07.214Z,15.14
2023-05-13T07:18:07.196Z,15.03
2023-05-13T07:19:07.266Z,14.86
2023-05-13T07:20:07.131Z,14.55
2023-05-13T07:21:07.156Z,14.41
2023-05-13T07:22:07.124Z,14.32
2023-05-13T07:23:07.123Z,14.62
2023-05-13T07:24:07.096Z,14.81
2023-05-13T07:25:07.119Z,14.99
2023-05-13T07:26:07.086Z,14.99
2023-05-13T07:27:07.080Z,15.27
2023-05-13T07:28:07.047Z,15.62
2023-05-13T07:29:07.087Z,15.83
2023-05-13T07:30:07.091Z,15.98
2023-05-13T07:31:07.094Z,16.60
2023-05-13T07:32:07.045Z,16.72
2023-05-13T07:33:07.057Z,17.27
2023-05-13T07:34:07.018Z,17.44
2023-05-13T07:35:07.023Z,17.95
2023-05-13T07:36:07.032Z,18.52
2023-05-13T07:37:07.006Z,18.81
2023-05-13T07:38:06.993Z,18.13
2023-05-13T07:39:07.152Z,18.60
2023-05-13T07:40:06.970Z,19.27
2023-05-13T07:41:06.989Z,18.96
2023-05-13T07:42:06.979Z,19.29
2023-05-13T07:43:06.957Z,19.16
2023-05-13T07:44:06.978Z,20.13
2023-05-13T07:45:06.941Z,20.44
2023-05-13T07:46:06.955Z,20.00
2023-05-13T07:47:06.976Z,19.07
2023-05-13T07:48:06.957Z,17.97
2023-05-13T07:49:06.940Z,18.47
2023-05-13T07:50:06.913Z,19.21
2023-05-13T07:51:06.907Z,18.90
2023-05-13T07:52:06.881Z,17.54
2023-05-13T07:53:06.909Z,18.53
2023-05-13T07:54:06.888Z,19.44
2023-05-13T07:55:06.912Z,19.71
2023-05-13T07:56:06.852Z,20.22
2023-05-13T07:57:06.864Z,20.51
2023-05-13T07:58:06.869Z,20.52
2023-05-13T07:59:09.225Z,20.77
2023-05-13T08:00:06.860Z,20.02
2023-05-13T08:01:06.844Z,20.65
2023-05-13T08:02:06.830Z,20.93
2023-05-13T08:03:06.957Z,21.27
2023-05-13T08:04:06.986Z,20.37
2023-05-13T08:05:06.955Z,19.95
2023-05-13T08:06:06.792Z,19.99
2023-05-13T08:07:06.795Z,20.39
2023-05-13T08:08:06.790Z,20.58
2023-05-13T08:09:06.811Z,20.95
2023-05-13T08:10:06.775Z,21.20
2023-05-13T08:11:06.761Z,20.55
2023-05-13T08:12:06.720Z,20.52
2023-05-13T08:13:06.741Z,21.11
2023-05-13T08:14:06.762Z,21.64
2023-05-13T08:15:06.791Z,21.75
2023-05-13T08:16:06.718Z,22.51
2023-05-13T08:17:06.748Z,22.62
2023-05-13T08:18:06.704Z,21.76
2023-05-13T08:19:06.746Z,20.80
2023-05-13T08:20:06.684Z,20.82
2023-05-13T08:21:06.688Z,20.63
2023-05-13T08:22:06.666Z,21.17
2023-05-13T08:23:06.681Z,21.76
2023-05-13T08:24:06.653Z,22.55
2023-05-13T08:25:06.659Z,22.10
2023-05-13T08:26:06.645Z,21.46
2023-05-13T08:27:06.634Z,21.33
2023-05-13T08:28:06.653Z,21.22
2023-05-13T08:29:06.636Z,21.27
2023-05-13T08:30:06.647Z,21.40
2023-05-13T08:31:06.626Z,20.99
2023-05-13T08:32:06.653Z,21.80
2023-05-13T08:33:06.683Z,21.93
2023-05-13T08:34:06.583Z,22.66
2023-05-13T08:35:06.574Z,23.03
2023-05-13T08:36:06.589Z,22.72
2023-05-13T08:37:06.593Z,22.91
2023-05-13T08:38:06.578Z,23.17
2023-05-13T08:39:06.592Z,22.38
2023-05-13T08:40:06.588Z,22.70
2023-05-13T08:41:06.773Z,23.17
2023-05-13T08:42:06.622Z,22.20
2023-05-13T08:43:06.645Z,22.47
2023-05-13T08:44:06.599Z,22.50
2023-05-13T08:45:06.562Z,21.67
2023-05-13T08:46:06.616Z,22.11
2023-05-13T08:47:06.533Z,22.39
2023-05-13T08:48:06.542Z,22.54
2023-05-13T08:49:06.486Z,22.47
2023-05-13T08:50:06.534Z,22.90
2023-05-13T08:51:06.512Z,22.43
2023-05-13T08:52:06.494Z,21.83
2023-05-13T08:53:06.505Z,20.87
2023-05-13T08:54:06.469Z,21.58
2023-05-13T08:55:06.484Z,21.30
2023-05-13T08:56:06.455Z,21.72
2023-05-13T08:57:06.443Z,21.79
2023-05-13T08:58:06.468Z,21.98
2023-05-13T08:59:06.447Z,22.14
2023-05-13T09:00:06.410Z,21.91
2023-05-13T09:01:06.499Z,22.02
2023-05-13T09:02:06.412Z,21.27
2023-05-13T09:03:06.461Z,21.46
2023-05-13T09:04:06.410Z,21.70
2023-05-13T09:05:06.446Z,21.35
2023-05-13T09:06:06.373Z,21.17
2023-05-13T09:07:06.400Z,21.64
2023-05-13T09:08:06.346Z,21.57
2023-05-13T09:09:06.424Z,21.96
2023-05-13T09:10:06.325Z,22.60
2023-05-13T09:11:06.388Z,23.47
2023-05-13T09:12:06.326Z,23.55
2023-05-13T09:13:06.332Z,22.85
2023-05-13T09:14:06.335Z,22.88
2023-05-13T09:15:06.341Z,22.90
2023-05-13T09:16:06.301Z,22.39
2023-05-13T09:17:06.365Z,22.44
2023-05-13T09:18:06.386Z,22.47
2023-05-13T09:19:06.427Z,22.80
2023-05-13T09:20:06.294Z,22.94
2023-05-13T09:21:06.285Z,22.91
2023-05-13T09:22:06.760Z,23.15
2023-05-13T09:23:06.257Z,22.41
2023-05-13T09:24:07.820Z,22.50
2023-05-13T09:25:06.255Z,21.58
2023-05-13T09:26:06.245Z,21.45
2023-05-13T09:27:06.214Z,21.40
2023-05-13T09:28:06.219Z,22.04
2023-05-13T09:29:06.209Z,22.39
2023-05-13T09:30:06.193Z,22.47
2023-05-13T09:31:06.206Z,22.28
2023-05-13T09:32:06.202Z,22.59
2023-05-13T09:33:06.224Z,23.06
2023-05-13T09:34:06.147Z,23.43
2023-05-13T09:35:06.163Z,23.18
2023-05-13T09:36:06.158Z,23.25
2023-05-13T09:37:06.196Z,23.46
2023-05-13T09:38:06.176Z,23.32
2023-05-13T09:39:06.172Z,23.48
2023-05-13T09:40:06.143Z,24.23
2023-05-13T09:41:06.133Z,23.95
2023-05-13T09:42:06.114Z,23.32
2023-05-13T09:43:06.122Z,23.09
2023-05-13T09:44:06.097Z,23.48
2023-05-13T09:45:06.134Z,23.55
2023-05-13T09:46:06.099Z,23.47
2023-05-13T09:47:06.203Z,23.83
2023-05-13T09:48:06.123Z,23.69
2023-05-13T09:49:06.132Z,24.10
2023-05-13T09:50:06.047Z,23.91
2023-05-13T09:51:06.068Z,23.21
2023-05-13T09:52:06.046Z,22.60
2023-05-13T09:53:06.053Z,23.69
2023-05-13T09:54:06.051Z,24.58
2023-05-13T09:55:06.075Z,25.10
2023-05-13T09:56:06.015Z,24.85
2023-05-13T09:57:06.036Z,23.93
2023-05-13T09:58:06.010Z,23.13
2023-05-13T09:59:06.076Z,23.37
2023-05-13T10:00:05.985Z,23.86
2023-05-13T10:01:06.082Z,23.77
2023-05-13T10:02:05.966Z,23.59
2023-05-13T10:03:06.033Z,23.63
2023-05-13T10:04:05.971Z,24.02
2023-05-13T10:05:05.973Z,24.30
2023-05-13T10:06:05.980Z,23.83
2023-05-13T10:07:05.956Z,23.00
2023-05-13T10:08:05.932Z,22.73
2023-05-13T10:09:05.938Z,22.68
2023-05-13T10:10:05.947Z,22.68
2023-05-13T10:11:05.938Z,22.22
2023-05-13T10:12:05.936Z,22.72
2023-05-13T10:13:05.919Z,22.78
2023-05-13T10:14:05.883Z,23.20
2023-05-13T10:15:05.904Z,23.44
2023-05-13T10:16:05.909Z,23.18
2023-05-13T10:17:05.951Z,23.51
2023-05-13T10:18:07.524Z,23.54
2023-05-13T10:19:05.951Z,23.86
2023-05-13T10:20:05.873Z,22.98
2023-05-13T10:21:05.872Z,23.02
2023-05-13T10:22:05.846Z,22.83
2023-05-13T10:23:05.851Z,23.71
2023-05-13T10:24:05.844Z,24.28
2023-05-13T10:25:05.829Z,24.39
2023-05-13T10:26:05.810Z,24.47
2023-05-13T10:27:05.812Z,24.54
2023-05-13T10:28:05.801Z,24.36
2023-05-13T10:29:05.808Z,24.36
2023-05-13T10:30:05.844Z,24.33
2023-05-13T10:31:05.797Z,24.43
2023-05-13T10:32:05.885Z,24.36
2023-05-13T10:33:05.836Z,24.76
2023-05-13T10:34:05.743Z,24.51
2023-05-13T10:35:05.772Z,24.76
2023-05-13T10:36:05.735Z,24.43
2023-05-13T10:37:05.757Z,23.74
2023-05-13T10:38:05.772Z,23.40
2023-05-13T10:39:05.736Z,23.68
2023-05-13T10:40:05.700Z,23.48
2023-05-13T10:41:05.744Z,23.69
2023-05-13T10:42:05.700Z,23.21
2023-05-13T10:43:05.708Z,22.63
2023-05-13T10:44:05.722Z,22.00
2023-05-13T10:45:05.706Z,22.02
2023-05-13T10:46:05.708Z,22.22
2023-05-13T10:47:05.716Z,22.28
2023-05-13T10:48:05.761Z,22.43
2023-05-13T10:49:05.687Z,22.62
2023-05-13T10:50:05.631Z,22.91
2023-05-13T10:51:05.654Z,23.66
2023-05-13T10:52:05.634Z,23.88
2023-05-13T10:53:05.649Z,23.44
2023-05-13T10:54:05.601Z,23.05
2023-05-13T10:55:05.612Z,22.93
2023-05-13T10:56:05.605Z,22.88
2023-05-13T10:57:05.606Z,22.90
2023-05-13T10:58:05.613Z,22.73
2023-05-13T10:59:05.596Z,22.83
2023-05-13T11:00:05.573Z,22.88
2023-05-13T11:01:05.606Z,22.39
2023-05-13T11:02:05.564Z,22.15
2023-05-13T11:03:05.618Z,22.02
2023-05-13T11:04:05.684Z,22.38
2023-05-13T11:05:05.587Z,22.35
2023-05-13T11:06:05.532Z,22.60
2023-05-13T11:07:05.535Z,22.59
2023-05-13T11:08:05.515Z,22.60
2023-05-13T11:09:05.519Z,21.96
2023-05-13T11:10:05.525Z,21.27
2023-05-13T11:11:05.498Z,21.55
2023-05-13T11:12:05.485Z,21.66
2023-05-13T11:13:05.487Z,21.50
2023-05-13T11:14:08.117Z,21.88
2023-05-13T11:15:05.500Z,21.95
2023-05-13T11:16:05.510Z,21.91
2023-05-13T11:17:05.476Z,22.23
2023-05-13T11:18:05.498Z,22.59
2023-05-13T11:19:05.528Z,22.69
2023-05-13T11:20:05.477Z,22.70
2023-05-13T11:21:05.843Z,22.88
2023-05-13T11:22:05.452Z,23.02
2023-05-13T11:23:05.420Z,22.93
2023-05-13T11:24:05.447Z,22.90
2023-05-13T11:25:05.416Z,22.14
2023-05-13T11:26:05.382Z,21.69
2023-05-13T11:27:05.388Z,21.60
2023-05-13T11:28:05.390Z,21.39
2023-05-13T11:29:05.412Z,21.22
2023-05-13T11:30:05.437Z,21.09
2023-05-13T11:31:05.390Z,21.12
2023-05-13T11:32:05.346Z,21.42
2023-05-13T11:33:05.380Z,21.91
2023-05-13T11:34:05.368Z,21.93
2023-05-13T11:35:05.336Z,21.98
2023-05-13T11:36:05.315Z,21.89
2023-05-13T11:37:05.347Z,21.76
2023-05-13T11:38:05.305Z,22.15
2023-05-13T11:39:05.302Z,22.30
2023-05-13T11:40:05.277Z,22.33
2023-05-13T11:41:05.313Z,22.48
2023-05-13T11:42:05.286Z,22.57
2023-05-13T11:43:05.410Z,22.75
2023-05-13T11:44:05.256Z,22.55
2023-05-13T11:45:05.270Z,22.39
2023-05-13T11:46:05.297Z,22.13
2023-05-13T11:47:05.275Z,21.77
2023-05-13T11:48:05.272Z,22.00
2023-05-13T11:49:07.247Z,21.99
2023-05-13T11:50:05.235Z,22.10
2023-05-13T11:51:05.220Z,22.23
2023-05-13T11:52:05.204Z,22.26
2023-05-13T11:53:05.232Z,22.20
2023-05-13T11:54:05.214Z,22.17
2023-05-13T11:55:07.044Z,21.93
2023-05-13T11:56:05.168Z,21.67
2023-05-13T11:57:05.177Z,21.82
2023-05-13T11:58:05.171Z,21.50
2023-05-13T11:59:05.174Z,21.57
2023-05-13T12:00:05.167Z,21.62
2023-05-13T12:01:05.173Z,21.15
2023-05-13T12:02:05.190Z,21.22
2023-05-13T12:03:05.272Z,21.46
2023-05-13T12:04:05.113Z,21.30
2023-05-13T12:05:05.165Z,21.32
2023-05-13T12:06:05.097Z,21.54
2023-05-13T12:07:05.102Z,21.43
2023-05-13T12:08:05.091Z,21.52
2023-05-13T12:09:05.136Z,21.42
2023-05-13T12:10:05.112Z,21.61
2023-05-13T12:11:05.084Z,21.66
2023-05-13T12:12:05.068Z,21.39
2023-05-13T12:13:05.066Z,21.54
2023-05-13T12:14:05.078Z,21.93
2023-05-13T12:15:05.062Z,22.00
2023-05-13T12:16:05.075Z,21.88
2023-05-13T12:17:05.038Z,21.64
2023-05-13T12:18:05.042Z,21.67
2023-05-13T12:19:05.130Z,21.72
2023-05-13T12:20:05.815Z,21.91
2023-05-13T12:21:05.039Z,22.11
2023-05-13T12:22:05.627Z,22.47
2023-05-13T12:23:05.000Z,22.72
2023-05-13T12:24:04.995Z,22.47
2023-05-13T12:25:04.986Z,22.06
2023-05-13T12:26:05.002Z,21.85
2023-05-13T12:27:04.985Z,21.79
2023-05-13T12:28:04.962Z,21.70
2023-05-13T12:29:04.956Z,21.82
2023-05-13T12:30:04.926Z,21.43
2023-05-13T12:31:05.000Z,21.45
2023-05-13T12:32:04.930Z,21.72
2023-05-13T12:33:04.969Z,21.42
2023-05-13T12:34:04.899Z,21.58
2023-05-13T12:35:04.899Z,21.35
2023-05-13T12:36:04.909Z,21.42
2023-05-13T12:37:04.942Z,21.52
2023-05-13T12:38:04.877Z,21.54
2023-05-13T12:39:04.907Z,21.64
2023-05-13T12:40:04.870Z,21.72
2023-05-13T12:41:04.909Z,21.67
2023-05-13T12:42:04.841Z,21.67
2023-05-13T12:43:04.878Z,21.67
2023-05-13T12:44:04.856Z,21.96
2023-05-13T12:45:04.847Z,21.73
2023-05-13T12:46:04.811Z,21.67
2023-05-13T12:47:04.845Z,21.50
2023-05-13T12:48:04.801Z,21.51
2023-05-13T12:49:04.850Z,21.62
2023-05-13T12:50:04.774Z,21.48
2023-05-13T12:51:04.820Z,21.39
2023-05-13T12:52:04.776Z,21.45
2023-05-13T12:53:04.777Z,21.72
2023-05-13T12:54:04.791Z,21.77
2023-05-13T12:55:04.810Z,21.82
2023-05-13T12:56:04.745Z,22.00
2023-05-13T12:57:04.780Z,22.20
2023-05-13T12:58:04.744Z,22.32
2023-05-13T12:59:04.733Z,21.79
2023-05-13T13:00:04.751Z,21.61
2023-05-13T13:01:04.751Z,21.54